Time;durP1;ratioP1;P1;durP2;ratioP2;P2;SDS_P1;SDS_P2;PMS_P1;PMS_P2;Temp;Humidity;BMP_temperature;BMP_pressure;BME280_temperature;BME280_humidity;BME280_pressure;Samples;Min_cycle;Max_cycle;Signal;HPM_P1;HPM_P2
2021/05/10 00:02:03;;;;;;;;;;;;;;;22.05;68.76;100191.34;5115565;27;1315;-66
2021/05/10 00:04:48;;;;;;;;;;;;;;;22.06;68.60;100224.88;5131466;27;1323;-63
2021/05/10 00:07:32;;;;;;;;;;;;;;;22.05;68.78;100193.16;5131386;27;729;-65
2021/05/10 00:10:17;;;;;;;;;;;;;;;22.05;68.88;100167.50;5115837;27;1258;-65
2021/05/10 00:13:04;;;;;;;;;;;;;;;22.05;68.61;100171.94;5131423;27;737;-65
2021/05/10 00:15:49;;;;;;;;;;;;;;;22.01;69.10;100176.66;5115662;27;1282;-64
2021/05/10 00:18:34;;;;;;;;;;;;;;;22.04;68.82;100187.00;5115621;27;694;-63
2021/05/10 00:21:20;;;;;;;;;;;;;;;22.04;69.02;100192.31;5131197;27;1275;-64
2021/05/10 00:24:06;;;;;;;;;;;;;;;22.04;69.06;100179.06;5130829;27;1129;-64
2021/05/10 00:26:51;;;;;;;;;;;;;;;22.02;68.72;100173.03;5115285;27;1905;-66
2021/05/10 00:29:35;;;;;;;;;;;;;;;22.03;68.73;100184.50;5130937;27;1146;-65
2021/05/10 00:32:20;;;;;;;;;;;;;;;22.02;68.81;100167.72;5130820;27;673;-62
2021/05/10 00:35:14;;;;;;;;;;;;;;;22.01;68.91;100171.34;5116191;27;1239;-66
2021/05/10 00:37:59;;;;;;;;;;;;;;;22.02;69.08;100167.72;5130510;27;675;-65
2021/05/10 00:40:44;;;;;;;;;;;;;;;22.01;68.83;100163.38;5130667;27;1336;-65
2021/05/10 00:43:28;;;;;;;;;;;;;;;22.00;68.85;100143.16;5130830;27;646;-65
2021/05/10 00:46:13;;;;;;;;;;;;;;;22.01;68.84;100147.47;5131007;27;1893;-65
2021/05/10 00:48:57;;;;;;;;;;;;;;;22.01;68.93;100159.91;5130645;27;1528;-65
2021/05/10 00:51:42;;;;;;;;;;;;;;;22.00;69.03;100159.06;5130377;27;1295;-64
2021/05/10 00:54:27;;;;;;;;;;;;;;;22.01;68.93;100151.97;5130535;27;1076;-65
2021/05/10 00:57:12;;;;;;;;;;;;;;;22.00;69.01;100156.41;5130589;27;572;-65
2021/05/10 00:59:57;;;;;;;;;;;;;;;22.00;69.19;100131.69;5130371;27;1263;-65
2021/05/10 01:02:43;;;;;;;;;;;;;;;21.99;68.98;100144.09;5130232;27;697;-65
2021/05/10 01:05:27;;;;;;;;;;;;;;;21.99;69.32;100130.84;5130369;27;1902;-65
2021/05/10 01:08:12;;;;;;;;;;;;;;;21.99;69.06;100117.59;5114689;27;679;-65
2021/05/10 01:10:57;;;;;;;;;;;;;;;21.99;69.29;100125.56;5130469;27;1248;-65
2021/05/10 01:13:42;;;;;;;;;;;;;;;21.99;69.26;100117.59;5129103;27;975;-65
2021/05/10 01:16:27;;;;;;;;;;;;;;;22.00;69.08;100113.13;5130355;27;1272;-65
2021/05/10 01:19:14;;;;;;;;;;;;;;;21.98;69.21;100102.63;5129925;27;1092;-64
2021/05/10 01:21:59;;;;;;;;;;;;;;;21.99;69.36;100111.44;5130073;27;1362;-65
2021/05/10 01:24:45;;;;;;;;;;;;;;;21.97;69.00;100100.97;5130089;27;1327;-65
2021/05/10 01:27:30;;;;;;;;;;;;;;;21.99;69.28;100104.34;5129819;27;1933;-65
2021/05/10 01:30:25;;;;;;;;;;;;;;;21.99;69.17;100098.19;5130168;27;1259;-65
2021/05/10 01:33:10;;;;;;;;;;;;;;;21.98;69.18;100086.72;5114206;27;719;-64
2021/05/10 01:35:59;;;;;;;;;;;;;;;21.97;69.42;100085.06;5130031;27;1368;-64
2021/05/10 01:38:44;;;;;;;;;;;;;;;21.97;69.34;100077.09;5129717;28;1174;-64
2021/05/10 01:41:28;;;;;;;;;;;;;;;21.97;68.86;100074.44;5129416;28;1377;-65
2021/05/10 01:44:13;;;;;;;;;;;;;;;21.97;68.90;100066.50;5138655;27;1545;-65
2021/05/10 01:46:58;;;;;;;;;;;;;;;21.97;68.92;100071.81;5129683;28;2000;-64
2021/05/10 01:49:45;;;;;;;;;;;;;;;21.96;68.73;100061.31;5129867;28;1768;-64
2021/05/10 01:52:30;;;;;;;;;;;;;;;21.91;69.30;100048.44;5129888;28;746;-65
2021/05/10 01:55:16;;;;;;;;;;;;;;;21.95;68.73;100049.84;5129565;28;1372;-65
2021/05/10 01:58:01;;;;;;;;;;;;;;;21.95;69.07;100036.59;5129678;28;702;-65
2021/05/10 02:00:48;;;;;;;;;;;;;;;21.96;68.80;100032.97;5129881;28;1255;-64
2021/05/10 02:03:32;;;;;;;;;;;;;;;21.95;68.90;100033.94;5129721;28;667;-65
2021/05/10 02:06:17;;;;;;;;;;;;;;;21.96;69.13;100040.09;5129476;28;1973;-65
2021/05/10 02:09:03;;;;;;;;;;;;;;;21.95;68.54;100036.59;5129823;28;956;-65
2021/05/10 02:11:48;;;;;;;;;;;;;;;21.95;68.74;100033.94;5129414;28;1273;-65
2021/05/10 02:14:32;;;;;;;;;;;;;;;21.96;68.73;100032.97;5129539;28;1052;-64
2021/05/10 02:17:17;;;;;;;;;;;;;;;21.94;68.84;100034.94;5129842;28;691;-65
2021/05/10 02:20:03;;;;;;;;;;;;;;;21.93;68.69;100046.50;5129688;28;1275;-65
2021/05/10 02:22:56;;;;;;;;;;;;;;;21.94;68.86;100042.03;5129620;28;635;-65
2021/05/10 02:25:44;;;;;;;;;;;;;;;21.94;68.89;100021.66;5117119;27;1922;-64
2021/05/10 02:28:30;;;;;;;;;;;;;;;21.93;68.57;100030.56;5133438;27;635;-65
2021/05/10 02:31:15;;;;;;;;;;;;;;;21.94;68.69;100034.06;5132996;27;1279;-65
2021/05/10 02:34:00;;;;;;;;;;;;;;;21.92;68.96;100030.69;5133251;27;948;-65
2021/05/10 02:36:44;;;;;;;;;;;;;;;21.91;69.18;100029.03;5132949;27;1273;-65
2021/05/10 02:39:29;;;;;;;;;;;;;;;21.93;69.13;100019.97;5133211;27;1508;-65
2021/05/10 02:42:13;;;;;;;;;;;;;;;21.92;69.09;100022.72;5132711;27;742;-65
2021/05/10 02:44:58;;;;;;;;;;;;;;;21.91;69.37;100016.63;5132999;27;1255;-64
2021/05/10 02:47:43;;;;;;;;;;;;;;;21.91;69.20;100007.81;5133300;27;639;-65
2021/05/10 02:50:28;;;;;;;;;;;;;;;21.91;69.38;100010.47;5112034;28;1235;-65
2021/05/10 02:53:13;;;;;;;;;;;;;;;21.92;69.59;100015.63;5112269;28;705;-65
2021/05/10 02:55:57;;;;;;;;;;;;;;;21.93;69.18;100011.16;5112444;28;1271;-65
2021/05/10 02:58:42;;;;;;;;;;;;;;;21.92;69.28;100004.16;5112287;28;1121;-65
2021/05/10 03:01:27;;;;;;;;;;;;;;;21.91;69.49;99991.91;5111918;28;1305;-65
2021/05/10 03:04:11;;;;;;;;;;;;;;;21.91;69.12;99995.41;5112076;28;1120;-65
2021/05/10 03:06:56;;;;;;;;;;;;;;;21.89;69.40;100002.63;5111743;28;1967;-64
2021/05/10 03:09:41;;;;;;;;;;;;;;;21.90;69.58;100014.06;5111984;28;1054;-65
2021/05/10 03:12:26;;;;;;;;;;;;;;;21.89;69.50;100031.78;5112071;28;674;-65
2021/05/10 03:15:14;;;;;;;;;;;;;;;21.89;69.28;100042.38;5111880;28;1250;-65
2021/05/10 03:17:58;;;;;;;;;;;;;;;21.88;69.61;100053.97;5111798;28;631;-65
2021/05/10 03:20:44;;;;;;;;;;;;;;;21.88;69.49;100063.72;5112273;28;1251;-65
2021/05/10 03:23:29;;;;;;;;;;;;;;;21.88;69.56;100085.81;5111551;28;675;-65
2021/05/10 03:26:14;;;;;;;;;;;;;;;21.89;69.29;100084.81;5111565;28;1977;-65
2021/05/10 03:28:59;;;;;;;;;;;;;;;21.89;69.54;100092.78;5111569;28;931;-65
2021/05/10 03:31:44;;;;;;;;;;;;;;;21.89;69.59;100097.22;5111333;28;1256;-65
2021/05/10 03:34:29;;;;;;;;;;;;;;;21.89;69.66;100102.53;5111818;28;1104;-65
2021/05/10 03:37:13;;;;;;;;;;;;;;;21.86;69.52;100092.97;5110371;28;702;-64
2021/05/10 03:39:58;;;;;;;;;;;;;;;21.87;69.43;100075.28;5110970;28;1282;-65
2021/05/10 03:42:44;;;;;;;;;;;;;;;21.86;69.24;100081.53;5111464;28;635;-65
2021/05/10 03:45:29;;;;;;;;;;;;;;;21.85;69.38;100075.41;5111411;28;1993;-65
2021/05/10 03:48:13;;;;;;;;;;;;;;;21.86;69.32;100081.53;5115024;27;1386;-65
2021/05/10 03:50:58;;;;;;;;;;;;;;;21.86;69.56;100068.28;5132172;27;1251;-65
2021/05/10 03:53:42;;;;;;;;;;;;;;;21.86;69.43;100081.53;5131791;27;982;-65
2021/05/10 03:56:27;;;;;;;;;;;;;;;21.85;69.45;100091.31;5131460;27;1377;-65
2021/05/10 03:59:12;;;;;;;;;;;;;;;21.85;69.31;100091.31;5131443;27;1147;-65
2021/05/10 04:02:00;;;;;;;;;;;;;;;21.85;69.30;100086.00;5131215;27;1380;-65
2021/05/10 04:04:52;;;;;;;;;;;;;;;21.85;69.45;100080.72;5131507;27;1239;-65
2021/05/10 04:16:20;;;;;;;;;;;;;;;21.86;69.66;100076.22;5131151;27;1271;-65
2021/05/10 04:19:06;;;;;;;;;;;;;;;21.84;69.27;100084.31;5131033;27;1102;-65
2021/05/10 04:21:50;;;;;;;;;;;;;;;21.84;69.58;100076.38;5131409;27;1611;-65
2021/05/10 04:24:35;;;;;;;;;;;;;;;21.84;69.10;100062.25;5131085;27;1134;-64
2021/05/10 04:27:19;;;;;;;;;;;;;;;21.83;69.17;100055.25;5147211;27;1931;-64
2021/05/10 04:30:04;;;;;;;;;;;;;;;21.83;69.06;100072.00;5152030;27;1325;-65
2021/05/10 04:32:49;;;;;;;;;;;;;;;21.84;69.47;100089.63;5148319;27;631;-65
2021/05/10 04:35:34;;;;;;;;;;;;;;;21.83;69.31;100095.03;5131038;27;1267;-65
2021/05/10 04:38:19;;;;;;;;;;;;;;;21.84;69.35;100096.72;5130554;27;639;-65
2021/05/10 04:41:04;;;;;;;;;;;;;;;21.84;69.32;100091.41;5130775;27;1192;-65
2021/05/10 04:43:48;;;;;;;;;;;;;;;21.83;69.35;100093.22;5131124;27;923;-64
2021/05/10 04:46:33;;;;;;;;;;;;;;;21.83;69.06;100105.63;5130376;27;1980;-65
2021/05/10 04:49:17;;;;;;;;;;;;;;;21.83;69.48;100101.19;5115008;27;1601;-65
2021/05/10 04:52:02;;;;;;;;;;;;;;;21.82;69.17;100088.06;5130370;27;1272;-65
2021/05/10 04:54:47;;;;;;;;;;;;;;;21.82;68.78;100075.66;5130531;27;1307;-64
2021/05/10 04:57:35;;;;;;;;;;;;;;;21.82;69.06;100064.19;5130478;27;654;-66
2021/05/10 05:00:19;;;;;;;;;;;;;;;21.82;69.11;100054.44;5129736;27;1371;-64
2021/05/10 05:03:04;;;;;;;;;;;;;;;21.82;69.13;100064.19;5130653;27;717;-64
2021/05/10 05:05:49;;;;;;;;;;;;;;;21.82;69.11;100062.41;5115095;27;1902;-64
2021/05/10 05:08:33;;;;;;;;;;;;;;;21.82;68.83;100064.19;5130537;27;707;-65
2021/05/10 05:11:18;;;;;;;;;;;;;;;21.81;68.70;100058.06;5130753;27;1283;-65
2021/05/10 05:14:03;;;;;;;;;;;;;;;21.82;68.96;100080.09;5130034;27;1139;-65
2021/05/10 05:16:47;;;;;;;;;;;;;;;21.81;68.52;100084.56;5130572;27;1285;-65
2021/05/10 05:19:34;;;;;;;;;;;;;;;21.80;68.57;100077.56;5130152;27;912;-65
2021/05/10 05:22:19;;;;;;;;;;;;;;;21.80;69.36;100082.88;5136323;27;1549;-64
2021/05/10 05:25:04;;;;;;;;;;;;;;;21.80;68.55;100088.16;5130937;27;1263;-64
2021/05/10 05:27:50;;;;;;;;;;;;;;;21.81;68.93;100089.88;5128413;27;1957;-64
2021/05/10 05:30:35;;;;;;;;;;;;;;;21.79;68.81;100086.50;5129231;27;1314;-65
2021/05/10 05:33:20;;;;;;;;;;;;;;;21.77;68.87;100080.47;5128848;27;612;-65
2021/05/10 05:36:05;;;;;;;;;;;;;;;21.78;68.89;100095.41;5128984;27;1263;-63
2021/05/10 05:38:50;;;;;;;;;;;;;;;21.77;68.67;100089.25;5113058;28;1054;-63
2021/05/10 05:41:35;;;;;;;;;;;;;;;21.78;68.50;100093.59;5129132;28;1275;-64
2021/05/10 05:44:20;;;;;;;;;;;;;;;21.81;69.77;100097.81;5128955;28;1038;-65
2021/05/10 05:47:05;;;;;;;;;;;;;;;21.62;67.47;100092.28;5128602;28;2007;-67
2021/05/10 05:49:50;;;;;;;;;;;;;;;21.41;66.28;100089.50;5128152;28;1268;-68
2021/05/10 05:52:35;;;;;;;;;;;;;;;21.35;65.90;100086.50;5129042;27;1540;-69
2021/05/10 05:55:20;;;;;;;;;;;;;;;21.39;65.94;100087.97;5128931;28;1231;-67
2021/05/10 05:58:06;;;;;;;;;;;;;;;21.51;68.04;100087.84;5120407;27;1586;-70
2021/05/10 06:00:53;;;;;;;;;;;;;;;21.47;66.27;100102.28;5146718;27;1461;-67
2021/05/10 06:03:38;;;;;;;;;;;;;;;21.50;65.78;100123.25;5134015;27;678;-66
2021/05/10 06:06:23;;;;;;;;;;;;;;;21.44;65.40;100128.16;5121115;27;1905;-66
2021/05/10 06:09:09;;;;;;;;;;;;;;;21.41;65.29;100131.06;5134286;27;1086;-67
2021/05/10 06:11:55;;;;;;;;;;;;;;;21.42;64.96;100135.41;5133547;27;1279;-67
2021/05/10 06:14:40;;;;;;;;;;;;;;;21.40;64.62;100132.03;5133704;27;929;-67
2021/05/10 06:17:24;;;;;;;;;;;;;;;21.42;65.00;100127.47;5133483;27;695;-67
2021/05/10 06:20:09;;;;;;;;;;;;;;;21.35;64.88;100156.22;5133481;27;1309;-68
2021/05/10 06:22:54;;;;;;;;;;;;;;;21.38;65.83;100169.22;5136555;27;1580;-67
2021/05/10 06:25:39;;;;;;;;;;;;;;;21.47;66.27;100159.72;5137479;27;1883;-67
2021/05/10 06:28:24;;;;;;;;;;;;;;;21.40;65.14;100140.00;5132573;27;627;-66
2021/05/10 06:31:11;;;;;;;;;;;;;;;21.43;65.52;100142.41;5138468;27;1579;-67
2021/05/10 06:33:56;;;;;;;;;;;;;;;21.41;65.16;100145.16;5132628;27;1089;-67
2021/05/10 06:36:41;;;;;;;;;;;;;;;21.36;65.20;100136.72;5143284;27;1457;-67
2021/05/10 06:39:25;;;;;;;;;;;;;;;21.12;62.85;100133.31;5130835;27;1053;-70
2021/05/10 06:42:10;;;;;;;;;;;;;;;20.94;61.94;100135.53;5131532;27;721;-71
2021/05/10 06:44:55;;;;;;;;;;;;;;;20.93;61.94;100132.97;5134613;27;1437;-69
2021/05/10 06:47:41;;;;;;;;;;;;;;;20.89;62.24;100142.94;5122221;27;1963;-69
2021/05/10 06:50:26;;;;;;;;;;;;;;;20.84;60.45;100150.41;5111067;28;1350;-69
2021/05/10 06:53:10;;;;;;;;;;;;;;;20.82;60.28;100167.38;5111309;28;651;-66
2021/05/10 06:55:55;;;;;;;;;;;;;;;20.81;60.50;100155.94;5112113;28;1342;-68
2021/05/10 06:58:41;;;;;;;;;;;;;;;20.81;60.01;100140.03;5111667;28;714;-72
2021/05/10 07:01:25;;;;;;;;;;;;;;;20.76;60.02;100136.91;5109906;28;1632;-73
2021/05/10 07:04:10;;;;;;;;;;;;;;;20.83;60.12;100143.41;5123702;27;1178;-70
2021/05/10 07:06:56;;;;;;;;;;;;;;;20.88;60.02;100124.56;5113240;27;1911;-72
2021/05/10 07:09:41;;;;;;;;;;;;;;;20.87;59.30;100136.09;5115997;27;1208;-69
2021/05/10 07:12:29;;;;;;;;;;;;;;;20.96;59.95;100152.13;5112312;27;1509;-70
2021/05/10 07:15:15;;;;;;;;;;;;;;;21.04;59.63;100149.75;5114554;27;1270;-68
2021/05/10 07:18:10;;;;;;;;;;;;;;;21.10;59.92;100159.91;5118341;27;1194;-67
2021/05/10 07:20:55;;;;;;;;;;;;;;;21.12;60.14;100167.75;5110445;28;1283;-68
2021/05/10 07:23:40;;;;;;;;;;;;;;;21.15;60.58;100171.00;5110258;28;671;-69
2021/05/10 07:26:25;;;;;;;;;;;;;;;21.11;60.49;100176.63;5110085;28;1984;-68
2021/05/10 07:29:10;;;;;;;;;;;;;;;21.14;60.54;100171.97;5110098;28;1037;-67
2021/05/10 07:31:54;;;;;;;;;;;;;;;21.14;60.52;100168.47;5111143;27;1513;-68
2021/05/10 07:34:40;;;;;;;;;;;;;;;21.10;60.74;100167.84;5121166;27;1496;-69
2021/05/10 07:37:24;;;;;;;;;;;;;;;21.19;60.85;100166.28;5123814;27;1512;-68
2021/05/10 07:40:09;;;;;;;;;;;;;;;21.30;62.13;100174.28;5114551;27;1570;-67
2021/05/10 07:42:53;;;;;;;;;;;;;;;21.24;61.21;100169.47;5094170;28;683;-66
2021/05/10 07:45:38;;;;;;;;;;;;;;;21.24;62.21;100180.91;5110285;28;1275;-66
2021/05/10 07:48:23;;;;;;;;;;;;;;;21.09;61.97;100186.50;5125741;27;1620;-67
2021/05/10 07:51:08;;;;;;;;;;;;;;;21.05;62.32;100174.41;5130041;27;1308;-66
2021/05/10 07:53:55;;;;;;;;;;;;;;;20.90;60.78;100176.41;5142970;27;1081;-71
2021/05/10 07:56:39;;;;;;;;;;;;;;;20.89;60.10;100163.28;5133188;27;1328;-67
2021/05/10 07:59:24;;;;;;;;;;;;;;;20.87;59.60;100166.06;5114348;27;1089;-69
2021/05/10 08:02:09;;;;;;;;;;;;;;;20.79;59.92;100173.75;5130027;27;1089;-69
2021/05/10 08:04:54;;;;;;;;;;;;;;;20.70;59.14;100169.94;5114523;27;1381;-68
2021/05/10 08:07:39;;;;;;;;;;;;;;;20.91;59.92;100162.22;5129432;27;1906;-65
2021/05/10 08:10:24;;;;;;;;;;;;;;;21.02;59.38;100156.97;5143076;27;1408;-66
2021/05/10 08:13:10;;;;;;;;;;;;;;;21.07;59.17;100154.81;5150788;27;662;-68
2021/05/10 08:15:55;;;;;;;;;;;;;;;21.04;58.56;100175.38;5150519;27;1294;-68
2021/05/10 08:18:42;;;;;;;;;;;;;;;21.07;58.45;100175.13;5134634;27;679;-68
2021/05/10 08:21:27;;;;;;;;;;;;;;;21.06;58.44;100153.13;5150618;27;1307;-68
2021/05/10 08:24:12;;;;;;;;;;;;;;;21.08;58.34;100148.59;5150276;27;1140;-65
2021/05/10 08:26:58;;;;;;;;;;;;;;;21.03;57.91;100171.91;5149891;27;1993;-65
2021/05/10 08:29:42;;;;;;;;;;;;;;;21.08;57.79;100190.06;5149804;27;950;-66
2021/05/10 08:32:27;;;;;;;;;;;;;;;21.06;57.33;100192.84;5150473;27;643;-66
2021/05/10 08:35:13;;;;;;;;;;;;;;;21.05;57.51;100199.09;5150134;27;1274;-65
2021/05/10 08:37:59;;;;;;;;;;;;;;;21.14;57.48;100211.69;5150426;27;647;-65
2021/05/10 08:40:43;;;;;;;;;;;;;;;21.11;58.16;100211.06;5142438;27;1552;-66
2021/05/10 08:43:28;;;;;;;;;;;;;;;21.11;58.43;100203.97;5129248;27;691;-66
2021/05/10 08:46:13;;;;;;;;;;;;;;;21.09;59.12;100191.81;5128274;27;1910;-67
2021/05/10 08:48:58;;;;;;;;;;;;;;;21.17;59.38;100195.56;5116707;27;1507;-66
2021/05/10 08:51:43;;;;;;;;;;;;;;;21.10;59.62;100191.69;5127510;27;1329;-66
2021/05/10 08:54:29;;;;;;;;;;;;;;;21.04;59.71;100193.91;5129264;27;1145;-68
2021/05/10 08:57:13;;;;;;;;;;;;;;;21.11;59.87;100196.03;5129018;27;733;-66
2021/05/10 08:59:58;;;;;;;;;;;;;;;21.09;59.90;100197.97;5127240;27;1294;-63
2021/05/10 09:02:43;;;;;;;;;;;;;;;21.06;59.41;100190.22;5128502;27;643;-63
2021/05/10 09:05:28;;;;;;;;;;;;;;;21.07;59.53;100183.94;5128916;27;1231;-63
2021/05/10 09:08:13;;;;;;;;;;;;;;;21.07;59.68;100205.13;5128714;27;1894;-65
2021/05/10 09:11:25;;;;;;;;;;;;;;;21.05;60.00;100196.44;5110364;27;1362;-64
2021/05/10 09:14:09;;;;;;;;;;;;;;;21.05;59.71;100188.50;5108211;28;1171;-63
2021/05/10 09:17:14;;;;;;;;;;;;;;;21.07;59.41;100170.69;5108328;28;1015;-65
2021/05/10 09:19:59;;;;;;;;;;;;;;;21.15;59.37;100183.41;5108186;28;1338;-65
2021/05/10 09:22:48;;;;;;;;;;;;;;;21.16;58.55;100201.81;5107502;28;737;-65
2021/05/10 09:25:34;;;;;;;;;;;;;;;21.20;57.29;100200.63;5108118;28;1370;-66
2021/05/10 09:28:23;;;;;;;;;;;;;;;21.18;56.00;100191.97;5108243;28;1934;-67
2021/05/10 09:31:09;;;;;;;;;;;;;;;21.17;55.89;100184.97;5108478;28;1295;-64
2021/05/10 09:34:14;;;;;;;;;;;;;;;21.21;56.28;100199.69;5107441;28;1155;-65
2021/05/10 09:37:02;;;;;;;;;;;;;;;21.19;55.78;100214.81;5108180;28;1413;-67
2021/05/10 09:39:47;;;;;;;;;;;;;;;21.20;55.69;100213.03;5107845;28;1266;-66
2021/05/10 09:42:48;;;;;;;;;;;;;;;21.19;55.05;100225.41;5107381;28;750;-65
2021/05/10 09:45:39;;;;;;;;;;;;;;;21.18;54.88;100230.84;5108163;28;1271;-68
2021/05/10 09:48:25;;;;;;;;;;;;;;;21.16;55.70;100224.78;5112928;28;1636;-65
2021/05/10 09:51:14;;;;;;;;;;;;;;;21.17;54.91;100229.16;5128132;28;1342;-67
2021/05/10 09:54:08;;;;;;;;;;;;;;;21.20;53.66;100247.47;5112671;28;1045;-66
2021/05/10 09:57:02;;;;;;;;;;;;;;;21.21;53.58;100257.09;5128624;28;1271;-67
2021/05/10 10:00:05;;;;;;;;;;;;;;;21.24;53.61;100262.16;5113162;28;1382;-63
2021/05/10 10:02:52;;;;;;;;;;;;;;;21.23;54.35;100263.13;5128033;27;1497;-64
2021/05/10 10:05:37;;;;;;;;;;;;;;;21.23;56.35;100256.03;5139272;27;1402;-61
2021/05/10 10:08:22;;;;;;;;;;;;;;;21.30;56.50;100250.25;5148914;27;1902;-64
2021/05/10 10:11:12;;;;;;;;;;;;;;;21.32;56.33;100253.63;5128311;27;1271;-64
2021/05/10 10:13:58;;;;;;;;;;;;;;;21.33;56.72;100231.50;5127968;28;904;-62
2021/05/10 10:16:43;;;;;;;;;;;;;;;21.36;57.19;100236.56;5128333;28;1302;-63
2021/05/10 10:19:28;;;;;;;;;;;;;;;21.36;57.61;100257.75;5128344;28;1134;-64
2021/05/10 10:22:17;;;;;;;;;;;;;;;21.35;58.21;100250.75;5127836;28;651;-64
2021/05/10 10:25:03;;;;;;;;;;;;;;;21.37;58.41;100251.50;5126615;27;1239;-64
2021/05/10 10:28:08;;;;;;;;;;;;;;;21.39;59.02;100254.88;5127760;27;1968;-63
2021/05/10 10:31:20;;;;;;;;;;;;;;;21.38;59.22;100255.81;5115312;27;1255;-64
2021/05/10 10:34:10;;;;;;;;;;;;;;;21.38;59.16;100261.13;5127650;28;1146;-64
2021/05/10 10:36:58;;;;;;;;;;;;;;;21.38;59.56;100258.47;5127518;27;1308;-64
2021/05/10 10:39:50;;;;;;;;;;;;;;;21.39;59.26;100260.16;5140263;27;970;-65
2021/05/10 10:42:35;;;;;;;;;;;;;;;21.39;59.09;100268.97;5127484;28;798;-63
2021/05/10 10:45:23;;;;;;;;;;;;;;;21.40;59.21;100269.81;5112901;27;1319;-62
2021/05/10 10:48:08;;;;;;;;;;;;;;;21.44;59.27;100287.16;5131574;27;1902;-67
2021/05/10 10:50:59;;;;;;;;;;;;;;;21.34;58.57;100267.63;5135581;27;1743;-67
2021/05/10 10:53:46;;;;;;;;;;;;;;;21.30;57.91;100266.16;5132258;27;1179;-66
2021/05/10 10:56:49;;;;;;;;;;;;;;;21.21;57.88;100281.78;5131696;27;1327;-68
2021/05/10 10:59:37;;;;;;;;;;;;;;;21.25;57.23;100285.88;5131584;27;1294;-68
2021/05/10 11:02:24;;;;;;;;;;;;;;;21.27;57.73;100279.63;5130989;27;671;-69
2021/05/10 11:05:22;;;;;;;;;;;;;;;21.29;58.01;100270.59;5135458;27;1334;-68
2021/05/10 11:08:08;;;;;;;;;;;;;;;21.33;58.42;100258.81;5137266;27;1976;-74
2021/05/10 11:10:59;;;;;;;;;;;;;;;21.38;58.95;100255.81;5134857;27;1404;-72
2021/05/10 11:13:44;;;;;;;;;;;;;;;21.39;59.60;100252.22;5132523;27;1040;-72
2021/05/10 11:16:48;;;;;;;;;;;;;;;21.40;59.97;100265.34;5131083;27;1335;-71
2021/05/10 11:19:34;;;;;;;;;;;;;;;21.42;60.34;100273.19;5115780;27;1017;-70
2021/05/10 11:22:30;;;;;;;;;;;;;;;21.42;60.69;100278.47;5131359;27;690;-70
2021/05/10 11:25:39;;;;;;;;;;;;;;;21.53;61.28;100268.75;5114729;27;1397;-69
2021/05/10 11:28:30;;;;;;;;;;;;;;;21.47;61.33;100271.88;5130833;27;1898;-72
2021/05/10 11:31:15;;;;;;;;;;;;;;;21.47;61.86;100276.31;5130581;27;1440;-71
2021/05/10 11:34:05;;;;;;;;;;;;;;;21.48;61.86;100262.13;5130513;27;969;-69
2021/05/10 11:36:51;;;;;;;;;;;;;;;21.49;62.35;100269.13;5113761;27;1346;-68
2021/05/10 11:39:40;;;;;;;;;;;;;;;21.47;62.39;100266.56;5130363;27;1064;-69
2021/05/10 11:42:26;;;;;;;;;;;;;;;21.48;62.74;100278.03;5114548;27;1028;-73
2021/05/10 11:45:11;;;;;;;;;;;;;;;21.52;63.08;100277.66;5131011;27;1353;-68
2021/05/10 11:47:57;;;;;;;;;;;;;;;21.53;63.10;100283.81;5135369;27;1926;-70
2021/05/10 11:50:46;;;;;;;;;;;;;;;21.54;63.02;100285.50;5130326;27;1278;-68
2021/05/10 11:53:31;;;;;;;;;;;;;;;21.55;62.91;100280.06;5131646;27;990;-73
2021/05/10 11:56:26;;;;;;;;;;;;;;;21.53;63.27;100265.25;5124916;27;1287;-72
2021/05/10 11:59:23;;;;;;;;;;;;;;;21.52;63.43;100253.00;5138866;27;1212;-69
2021/05/10 12:02:22;;;;;;;;;;;;;;;21.52;63.52;100229.97;5146584;27;1255;-68
2021/05/10 12:05:08;;;;;;;;;;;;;;;21.62;63.12;100232.75;5143116;27;1501;-67
2021/05/10 12:07:53;;;;;;;;;;;;;;;21.60;63.58;100240.84;5147797;27;1910;-71
2021/05/10 12:10:38;;;;;;;;;;;;;;;21.59;63.44;100233.00;5140736;27;1513;-69
2021/05/10 12:13:26;;;;;;;;;;;;;;;21.59;63.88;100230.34;5138831;27;694;-69
2021/05/10 12:16:11;;;;;;;;;;;;;;;21.63;63.84;100223.84;5121698;27;1303;-67
2021/05/10 12:18:56;;;;;;;;;;;;;;;21.62;63.66;100220.34;5149596;27;1077;-70
2021/05/10 12:21:41;;;;;;;;;;;;;;;21.67;63.62;100231.44;5134160;27;1223;-67
2021/05/10 12:24:27;;;;;;;;;;;;;;;21.71;62.86;100240.00;5134957;27;1176;-69
2021/05/10 12:27:12;;;;;;;;;;;;;;;21.73;62.92;100244.22;5135414;27;1968;-66
2021/05/10 12:29:58;;;;;;;;;;;;;;;21.75;62.93;100246.75;5129581;27;1251;-67
2021/05/10 12:32:44;;;;;;;;;;;;;;;21.75;62.89;100239.66;5129381;27;635;-69
2021/05/10 12:35:33;;;;;;;;;;;;;;;21.76;63.87;100224.59;5112921;27;1338;-68
2021/05/10 12:38:30;;;;;;;;;;;;;;;21.73;63.70;100227.50;5112701;27;647;-71
2021/05/10 12:41:19;;;;;;;;;;;;;;;21.73;64.39;100215.06;5113425;27;1175;-69
2021/05/10 12:44:08;;;;;;;;;;;;;;;21.71;63.49;100197.59;5129458;27;910;-70
2021/05/10 12:46:53;;;;;;;;;;;;;;;21.74;63.08;100200.00;5132195;27;1937;-70
2021/05/10 12:49:44;;;;;;;;;;;;;;;21.76;63.31;100190.13;5137981;27;1359;-70
2021/05/10 12:52:29;;;;;;;;;;;;;;;21.82;63.98;100187.00;5132507;27;1532;-69
2021/05/10 12:55:19;;;;;;;;;;;;;;;21.82;64.04;100187.00;5118979;27;1515;-66
2021/05/10 12:58:17;;;;;;;;;;;;;;;22.03;64.35;100188.00;5111219;27;1000;-69
2021/05/10 13:01:17;;;;;;;;;;;;;;;22.01;64.53;100187.25;5129569;27;1274;-70
2021/05/10 13:04:04;;;;;;;;;;;;;;;22.01;65.95;100194.41;5124524;27;988;-66
2021/05/10 13:06:53;;;;;;;;;;;;;;;21.96;65.99;100201.84;5134343;27;1902;-69
2021/05/10 13:09:38;;;;;;;;;;;;;;;21.95;65.83;100203.66;5117502;27;1014;-70
2021/05/10 13:12:23;;;;;;;;;;;;;;;21.94;65.81;100207.28;5128843;27;683;-69
2021/05/10 13:15:15;;;;;;;;;;;;;;;21.93;65.53;100188.81;5149228;27;1346;-71
2021/05/10 13:32:48;;;;;;;;;;;;;;;21.86;65.58;100161.91;5149691;27;647;-68
2021/05/10 13:35:33;;;;;;;;;;;;;;;21.88;65.92;100177.72;5149186;27;1346;-69
2021/05/10 13:38:18;;;;;;;;;;;;;;;21.85;66.28;100176.16;5133873;27;662;-68
2021/05/10 13:41:08;;;;;;;;;;;;;;;21.85;66.00;100170.84;5149539;27;1317;-68
2021/05/10 13:44:05;;;;;;;;;;;;;;;21.84;66.10;100170.97;5148922;27;1130;-69
2021/05/10 13:46:51;;;;;;;;;;;;;;;21.84;66.09;100174.47;5132595;27;1906;-70
2021/05/10 13:49:38;;;;;;;;;;;;;;;21.83;66.05;100172.75;5149265;27;1440;-69
2021/05/10 13:52:23;;;;;;;;;;;;;;;21.82;66.42;100170.25;5149577;27;853;-69
2021/05/10 13:55:08;;;;;;;;;;;;;;;21.83;66.47;100162.16;5149310;27;1255;-69
2021/05/10 13:57:54;;;;;;;;;;;;;;;21.82;66.31;100165.78;5119911;28;1632;-69
2021/05/10 14:00:38;;;;;;;;;;;;;;;21.84;66.72;100157.72;5128502;28;1279;-70
2021/05/10 14:03:23;;;;;;;;;;;;;;;21.93;65.93;100160.50;5128505;28;683;-74
2021/05/10 14:06:08;;;;;;;;;;;;;;;21.94;66.17;100153.41;5133488;27;1690;-71
2021/05/10 14:08:53;;;;;;;;;;;;;;;21.91;66.82;100151.00;5131043;27;1239;-67
2021/05/10 14:11:38;;;;;;;;;;;;;;;21.89;66.28;100145.78;5129261;28;1271;-71
2021/05/10 14:14:23;;;;;;;;;;;;;;;21.94;66.21;100143.66;5128771;28;908;-71
2021/05/10 14:17:11;;;;;;;;;;;;;;;21.93;66.54;100126.03;5113401;28;753;-74
2021/05/10 14:19:57;;;;;;;;;;;;;;;21.93;66.64;100126.03;5128528;27;1306;-74
2021/05/10 14:22:42;;;;;;;;;;;;;;;21.93;66.50;100126.03;5127237;27;1192;-69
2021/05/10 14:25:27;;;;;;;;;;;;;;;21.94;66.42;100126.88;5153225;27;1369;-69
2021/05/10 14:28:12;;;;;;;;;;;;;;;21.94;66.38;100125.09;5153038;27;1905;-70
2021/05/10 14:31:00;;;;;;;;;;;;;;;21.94;66.21;100122.44;5153345;27;1266;-70
2021/05/10 14:33:46;;;;;;;;;;;;;;;21.89;66.14;100113.97;5152719;27;1146;-69
2021/05/10 14:36:33;;;;;;;;;;;;;;;21.97;66.68;100131.94;5152568;27;1295;-72
2021/05/10 14:39:18;;;;;;;;;;;;;;;21.98;66.31;100129.16;5145636;27;1207;-72
2021/05/10 14:42:03;;;;;;;;;;;;;;;21.98;66.09;100126.50;5131926;27;1405;-72
2021/05/10 14:44:48;;;;;;;;;;;;;;;21.98;65.99;100121.19;5116292;27;1410;-73
2021/05/10 14:47:33;;;;;;;;;;;;;;;22.00;66.14;100116.63;5131938;27;1960;-70
2021/05/10 14:50:17;;;;;;;;;;;;;;;22.01;66.60;100117.50;5095804;28;1271;-72
2021/05/10 14:53:06;;;;;;;;;;;;;;;22.02;66.36;100111.19;5096285;28;636;-69
2021/05/10 14:55:51;;;;;;;;;;;;;;;22.02;66.27;100117.34;5111161;28;1283;-71